createdAt,value
2023-10-08T00:03:03.961Z,5.91
2023-10-08T00:08:06.247Z,5.91
2023-10-08T00:13:08.919Z,5.97
2023-10-08T00:18:11.072Z,5.95
2023-10-08T00:23:13.183Z,5.98
2023-10-08T00:28:15.048Z,5.96
2023-10-08T00:33:16.993Z,5.96
2023-10-08T00:38:18.997Z,5.91
2023-10-08T00:43:36.514Z,5.81
2023-10-08T00:48:38.534Z,5.78
2023-10-08T00:53:40.505Z,5.79
2023-10-08T00:58:42.697Z,5.77
2023-10-08T01:03:44.878Z,5.79
2023-10-08T01:08:47.502Z,5.81
2023-10-08T01:13:49.635Z,5.73
2023-10-08T01:18:51.776Z,5.73
2023-10-08T01:23:53.847Z,5.63
2023-10-08T01:28:55.707Z,5.49
2023-10-08T01:33:57.704Z,5.26
2023-10-08T01:38:59.663Z,5.07
2023-10-08T01:44:01.629Z,4.99
2023-10-08T01:49:03.647Z,5.00
2023-10-08T01:54:05.850Z,5.12
2023-10-08T01:59:08.095Z,5.16
2023-10-08T02:04:10.650Z,5.16
2023-10-08T02:09:12.803Z,5.04
2023-10-08T02:14:14.925Z,5.00
2023-10-08T02:19:17.342Z,4.95
2023-10-08T02:24:19.340Z,4.90
2023-10-08T02:29:21.660Z,4.78
2023-10-08T02:34:23.651Z,4.82
2023-10-08T02:39:25.556Z,4.86
2023-10-08T02:44:27.655Z,4.91
2023-10-08T02:49:29.688Z,4.87
2023-10-08T02:54:31.580Z,4.76
2023-10-08T02:59:33.885Z,4.73
2023-10-08T03:04:35.768Z,4.76
2023-10-08T03:09:37.796Z,4.72
2023-10-08T03:14:39.776Z,4.72
2023-10-08T03:19:41.749Z,4.59
2023-10-08T03:24:43.717Z,4.63
2023-10-08T03:29:45.699Z,4.58
2023-10-08T03:34:48.451Z,4.56
2023-10-08T03:39:51.016Z,4.66
2023-10-08T03:44:53.411Z,4.64
2023-10-08T03:49:55.203Z,4.43
2023-10-08T03:54:57.069Z,4.58
2023-10-08T03:59:59.043Z,4.63
2023-10-08T04:05:00.962Z,4.70
2023-10-08T04:10:02.876Z,4.58
2023-10-08T04:15:06.216Z,4.53
2023-10-08T04:20:09.324Z,4.45
2023-10-08T04:25:11.236Z,4.43
2023-10-08T04:30:13.496Z,4.35
2023-10-08T04:35:15.523Z,4.31
2023-10-08T04:40:17.569Z,4.33
2023-10-08T04:45:19.483Z,4.42
2023-10-08T04:50:21.641Z,4.38
2023-10-08T04:55:23.642Z,4.50
2023-10-08T05:00:25.573Z,4.44
2023-10-08T05:05:27.574Z,4.46
2023-10-08T05:10:29.580Z,4.44
2023-10-08T05:15:32.070Z,4.36
2023-10-08T05:20:33.892Z,4.22
2023-10-08T05:25:35.790Z,4.36
2023-10-08T05:30:37.631Z,4.47
2023-10-08T05:35:41.148Z,4.45
2023-10-08T05:40:46.437Z,4.45
2023-10-08T05:45:48.377Z,4.42
2023-10-08T05:50:50.285Z,4.43
2023-10-08T05:55:52.271Z,4.59
2023-10-08T06:00:54.215Z,4.53
2023-10-08T06:05:56.196Z,4.52
2023-10-08T06:10:58.144Z,4.67
2023-10-08T06:16:00.110Z,4.72
2023-10-08T06:21:03.235Z,5.00
2023-10-08T06:26:05.272Z,4.94
2023-10-08T06:31:07.534Z,4.93
2023-10-08T06:36:09.543Z,4.91
2023-10-08T06:41:14.411Z,4.96
2023-10-08T06:46:18.574Z,4.95
2023-10-08T06:51:21.772Z,4.92
2023-10-08T06:56:23.731Z,4.76
2023-10-08T07:01:25.783Z,4.97
2023-10-08T07:06:27.702Z,4.90
2023-10-08T07:11:29.670Z,4.75
2023-10-08T07:16:34.870Z,4.56
2023-10-08T07:21:37.031Z,4.54
2023-10-08T07:26:39.060Z,4.80
2023-10-08T07:31:41.004Z,4.90
2023-10-08T07:36:47.382Z,4.93
2023-10-08T07:41:49.960Z,4.92
2023-10-08T07:46:52.726Z,4.83
2023-10-08T07:51:54.713Z,4.87
2023-10-08T07:56:56.835Z,4.94
2023-10-08T08:01:58.892Z,4.91
2023-10-08T08:07:00.861Z,4.79
2023-10-08T08:12:02.893Z,5.43
2023-10-08T08:17:04.903Z,5.22
2023-10-08T08:22:06.907Z,5.37
2023-10-08T08:27:08.860Z,5.27
2023-10-08T08:32:11.449Z,5.22
2023-10-08T08:37:13.214Z,5.09
2023-10-08T08:42:15.110Z,5.27
2023-10-08T08:47:17.086Z,5.34
2023-10-08T08:52:19.053Z,5.90
2023-10-08T08:57:20.971Z,5.55
2023-10-08T09:02:22.923Z,5.42
2023-10-08T09:07:24.963Z,5.43
2023-10-08T09:12:27.805Z,5.19
2023-10-08T09:17:30.197Z,5.24
2023-10-08T09:22:32.156Z,5.29
2023-10-08T09:27:34.239Z,5.10
2023-10-08T09:32:36.228Z,5.36
2023-10-08T09:37:38.264Z,5.62
2023-10-08T09:42:40.209Z,5.41
2023-10-08T09:47:44.551Z,5.85
2023-10-08T09:53:07.630Z,6.08
2023-10-08T09:58:10.068Z,5.61
2023-10-08T10:03:11.981Z,5.18
2023-10-08T10:08:15.605Z,5.19
2023-10-08T10:13:18.009Z,4.84
2023-10-08T10:18:22.901Z,4.87
2023-10-08T10:23:44.273Z,4.98
2023-10-08T10:28:46.363Z,4.97
2023-10-08T10:33:48.397Z,4.57
2023-10-08T10:38:50.395Z,4.58
2023-10-08T10:43:52.374Z,4.42
2023-10-08T10:48:54.454Z,4.33
2023-10-08T10:53:56.523Z,4.32
2023-10-08T10:59:01.965Z,4.27
2023-10-08T11:04:04.058Z,4.05
2023-10-08T11:09:06.148Z,3.98
2023-10-08T11:14:08.112Z,3.93
2023-10-08T11:19:10.128Z,3.95
2023-10-08T11:24:12.360Z,3.98
2023-10-08T11:29:14.507Z,4.05
2023-10-08T11:34:16.709Z,4.21
2023-10-08T11:39:18.603Z,3.92
2023-10-08T11:44:20.529Z,3.79
2023-10-08T11:49:22.535Z,3.80
2023-10-08T11:54:24.418Z,3.66
2023-10-08T11:59:26.470Z,3.74
2023-10-08T12:04:28.728Z,3.76
2023-10-08T12:09:30.764Z,3.75
2023-10-08T12:14:32.744Z,3.62
2023-10-08T12:19:34.726Z,3.55
2023-10-08T12:24:36.700Z,3.59
2023-10-08T12:29:38.745Z,3.51
2023-10-08T12:34:40.783Z,3.50
2023-10-08T12:39:42.739Z,3.41
2023-10-08T12:44:45.829Z,3.36
2023-10-08T12:49:48.779Z,3.31
2023-10-08T12:54:50.860Z,3.15
2023-10-08T12:59:52.865Z,3.05
2023-10-08T13:04:56.149Z,2.88
2023-10-08T13:09:58.050Z,2.75
2023-10-08T13:15:00.043Z,2.84
2023-10-08T13:20:01.941Z,2.71
2023-10-08T13:25:05.306Z,2.67
2023-10-08T13:30:08.513Z,2.67
2023-10-08T13:35:10.764Z,2.68
2023-10-08T13:40:12.936Z,2.66
2023-10-08T13:45:14.946Z,2.53
2023-10-08T13:50:16.819Z,2.56
2023-10-08T13:55:18.854Z,2.49
2023-10-08T14:00:21.095Z,2.42
2023-10-08T14:05:23.207Z,2.42
2023-10-08T14:10:25.205Z,2.45
2023-10-08T14:15:27.268Z,2.35
2023-10-08T14:20:29.241Z,2.28
2023-10-08T14:25:31.239Z,2.26
2023-10-08T14:30:33.426Z,2.29
2023-10-08T14:35:35.483Z,2.29
2023-10-08T14:40:37.719Z,2.35
2023-10-08T14:45:39.611Z,2.24
2023-10-08T14:50:41.618Z,2.09
2023-10-08T14:55:43.599Z,2.17
2023-10-08T15:00:45.547Z,2.16
2023-10-08T15:05:49.046Z,2.15
2023-10-08T15:10:52.258Z,2.20
2023-10-08T15:15:54.168Z,2.25
2023-10-08T15:20:56.170Z,2.13
2023-10-08T15:25:58.192Z,2.05
2023-10-08T15:31:00.201Z,2.12
2023-10-08T15:36:02.308Z,2.10
2023-10-08T15:41:04.352Z,2.04
2023-10-08T15:46:06.491Z,2.17
2023-10-08T15:51:08.516Z,2.09
2023-10-08T15:56:10.469Z,2.08
2023-10-08T16:01:12.501Z,1.98
2023-10-08T16:06:14.566Z,1.95
2023-10-08T16:11:16.586Z,1.98
2023-10-08T16:16:18.628Z,2.11
2023-10-08T16:21:20.577Z,2.18
2023-10-08T16:26:22.682Z,2.11
2023-10-08T16:31:24.705Z,1.89
2023-10-08T16:36:26.782Z,2.04
2023-10-08T16:41:29.357Z,2.03
2023-10-08T16:46:31.129Z,2.00
2023-10-08T16:51:33.221Z,1.95
2023-10-08T16:56:35.534Z,1.83
2023-10-08T17:01:37.515Z,1.95
2023-10-08T17:06:39.680Z,1.96
2023-10-08T17:11:42.184Z,1.97
2023-10-08T17:16:44.021Z,2.00
2023-10-08T17:21:46.604Z,1.93
2023-10-08T17:26:54.588Z,1.91
2023-10-08T17:32:02.963Z,1.93
2023-10-08T17:37:04.979Z,1.80
2023-10-08T17:42:07.021Z,1.86
2023-10-08T17:47:09.188Z,1.92
2023-10-08T17:52:11.188Z,1.93
2023-10-08T17:57:13.472Z,1.97
2023-10-08T18:02:15.942Z,2.01
2023-10-08T18:07:17.732Z,1.91
2023-10-08T18:12:23.116Z,2.01
2023-10-08T18:17:25.179Z,1.97
2023-10-08T18:22:27.257Z,1.94
2023-10-08T18:27:29.198Z,1.95
2023-10-08T18:32:31.226Z,1.97
2023-10-08T18:37:36.545Z,2.01
2023-10-08T18:42:38.637Z,2.04
2023-10-08T18:47:40.962Z,1.85
2023-10-08T18:52:43.164Z,1.88
2023-10-08T18:57:48.545Z,2.05
2023-10-08T19:02:50.893Z,2.14
2023-10-08T19:07:53.134Z,2.02
2023-10-08T19:12:55.182Z,1.96
2023-10-08T19:17:57.252Z,2.00
2023-10-08T19:22:59.381Z,1.96
2023-10-08T19:28:01.457Z,1.96
2023-10-08T19:33:04.434Z,1.97
2023-10-08T19:38:07.426Z,1.96
2023-10-08T19:43:09.598Z,1.97
2023-10-08T19:48:11.756Z,2.02
2023-10-08T19:53:17.011Z,2.08
2023-10-08T19:58:19.818Z,2.01
2023-10-08T20:03:22.121Z,1.90
2023-10-08T20:08:24.208Z,1.96
2023-10-08T20:13:26.258Z,1.88
2023-10-08T20:18:28.442Z,1.87
2023-10-08T20:23:30.423Z,1.82
2023-10-08T20:28:32.588Z,1.94
2023-10-08T20:33:34.668Z,1.87
2023-10-08T20:38:36.800Z,1.87
2023-10-08T20:43:38.880Z,1.78
2023-10-08T20:48:41.033Z,1.68
2023-10-08T20:53:43.068Z,1.71
2023-10-08T20:58:45.151Z,1.73
2023-10-08T21:03:47.300Z,1.64
2023-10-08T21:08:49.352Z,1.61
2023-10-08T21:13:51.254Z,1.55
2023-10-08T21:18:53.390Z,1.53
2023-10-08T21:23:55.438Z,1.38
2023-10-08T21:28:57.522Z,1.36
2023-10-08T21:33:59.542Z,1.39
2023-10-08T21:39:01.732Z,1.28
2023-10-08T21:44:03.772Z,1.34
2023-10-08T21:49:05.751Z,1.33
2023-10-08T21:54:07.842Z,1.40
2023-10-08T21:59:09.879Z,1.33
2023-10-08T22:04:12.172Z,1.33
2023-10-08T22:09:16.859Z,1.41
2023-10-08T22:14:19.334Z,1.35
2023-10-08T22:19:24.734Z,1.50
2023-10-08T22:24:26.793Z,1.50
2023-10-08T22:29:28.861Z,1.38
2023-10-08T22:34:30.910Z,1.48
2023-10-08T22:39:32.903Z,1.45
2023-10-08T22:44:34.979Z,1.38
2023-10-08T22:49:37.735Z,1.40
2023-10-08T22:54:39.839Z,1.43
2023-10-08T22:59:41.897Z,1.42
2023-10-08T23:04:44.030Z,1.30
2023-10-08T23:09:46.240Z,1.31
2023-10-08T23:14:48.420Z,1.36
2023-10-08T23:19:50.452Z,1.40
2023-10-08T23:24:52.876Z,1.44
2023-10-08T23:29:55.921Z,1.35
2023-10-08T23:34:58.124Z,1.45
2023-10-08T23:40:00.175Z,1.50
2023-10-08T23:45:02.279Z,1.42
2023-10-08T23:50:06.434Z,1.46
2023-10-08T23:55:08.768Z,1.34
